Time;durP1;ratioP1;P1;durP2;ratioP2;P2;SDS_P1;SDS_P2;PMS_P1;PMS_P2;Temp;Humidity;BMP_temperature;BMP_pressure;BME280_temperature;BME280_humidity;BME280_pressure;Samples;Min_cycle;Max_cycle;Signal;HPM_P1;HPM_P2
2022/08/16 00:01:26;;;;;;;6.87;3.33;;;19.40;99.90;;;20.35;100.00;97364.34;5065636;28;20460;-77
2022/08/16 00:04:02;;;;;;;3.30;2.87;;;19.40;99.90;;;20.36;100.00;97364.09;5064004;28;20469;-77
2022/08/16 00:06:34;;;;;;;3.90;2.83;;;19.40;99.90;;;20.37;100.00;97354.28;5063118;28;20559;-77
2022/08/16 00:09:06;;;;;;;3.27;2.60;;;19.50;99.90;;;20.36;100.00;97356.13;5065293;28;20433;-77
2022/08/16 00:11:39;;;;;;;3.93;2.60;;;19.40;99.90;;;20.33;100.00;97359.31;5064181;28;20467;-77
2022/08/16 00:14:13;;;;;;;6.13;2.60;;;19.40;99.90;;;20.30;100.00;97364.38;5064579;28;20537;-76
2022/08/16 00:16:42;;;;;;;2.53;2.33;;;19.40;99.90;;;20.28;100.00;97361.97;5063652;28;20504;-76
2022/08/16 00:19:34;;;;;;;5.53;3.07;;;19.40;99.90;;;20.27;100.00;97356.91;5063883;28;20917;-77
2022/08/16 00:22:11;;;;;;;3.17;2.63;;;19.30;99.90;;;20.23;100.00;97351.31;5065705;28;20858;-77
2022/08/16 00:24:43;;;;;;;3.87;2.60;;;19.30;99.90;;;20.26;100.00;97352.66;5060306;28;20464;-77
2022/08/16 00:27:16;;;;;;;6.20;3.00;;;19.20;99.90;;;20.24;100.00;97350.25;5064553;28;20448;-77
2022/08/16 00:29:45;;;;;;;11.77;2.60;;;19.20;99.90;;;20.22;100.00;97346.28;5064586;28;20523;-77
2022/08/16 00:32:14;;;;;;;4.40;3.20;;;19.20;99.90;;;20.22;100.00;97348.91;5062887;28;20470;-76
2022/08/16 00:34:46;;;;;;;6.00;2.83;;;19.10;99.90;;;20.21;100.00;97340.16;5063637;28;20468;-77
2022/08/16 00:37:26;;;;;;;3.53;3.00;;;19.20;99.90;;;20.20;100.00;97341.22;5060940;28;20515;-77
2022/08/16 00:40:22;;;;;;;4.13;3.20;;;19.10;99.90;;;20.17;100.00;97343.59;5064635;28;20903;-77
2022/08/16 00:43:10;;;;;;;4.73;2.60;;;19.10;99.90;;;20.08;100.00;97353.97;5065805;28;20444;-77
2022/08/16 00:45:55;;;;;;;6.10;3.57;;;19.10;99.90;;;20.01;100.00;97358.72;5061970;28;20467;-77
2022/08/16 00:48:30;;;;;;;3.20;2.90;;;19.10;99.90;;;19.98;100.00;97352.09;5062666;28;20454;-77
2022/08/16 00:51:13;;;;;;;3.93;3.10;;;19.00;99.90;;;19.97;100.00;97355.00;5062713;28;20460;-77
2022/08/16 00:53:48;;;;;;;3.03;2.73;;;19.00;99.90;;;19.91;100.00;97370.13;5059515;28;20987;-77
2022/08/16 00:56:22;;;;;;;4.50;3.40;;;19.00;99.90;;;19.85;100.00;97365.09;5061163;28;20909;-76
2022/08/16 00:59:13;;;;;;;4.83;3.10;;;18.90;99.90;;;19.80;100.00;97371.19;5059827;28;20554;-77
2022/08/16 01:01:44;;;;;;;4.83;3.57;;;18.90;99.90;;;19.74;100.00;97368.78;5059434;28;20580;-76
2022/08/16 01:04:19;;;;;;;6.50;3.33;;;18.90;99.90;;;19.75;100.00;97368.50;5061845;28;20464;-76
2022/08/16 01:06:58;;;;;;;4.83;3.40;;;18.80;99.90;;;19.75;100.00;97362.41;5062274;28;20520;-77
2022/08/16 01:09:34;;;;;;;3.60;2.70;;;18.80;99.90;;;19.74;100.00;97366.13;5060987;28;20558;-76
2022/08/16 01:12:10;;;;;;;5.40;3.33;;;18.80;99.90;;;19.70;100.00;97359.75;5061861;28;20990;-76
2022/08/16 01:14:59;;;;;;;3.57;3.23;;;18.70;99.90;;;19.66;100.00;97366.63;5061371;28;20456;-77
2022/08/16 01:17:31;;;;;;;6.33;3.60;;;18.70;99.90;;;19.58;100.00;97360.78;5060294;28;20492;-77
2022/08/16 01:20:11;;;;;;;3.87;3.13;;;18.70;99.90;;;19.55;100.00;97355.19;5062910;28;20456;-77
2022/08/16 01:23:03;;;;;;;3.97;3.40;;;18.60;99.90;;;19.52;100.00;97359.16;5060603;28;20465;-76
2022/08/16 01:25:44;;;;;;;5.17;2.97;;;18.60;99.90;;;19.45;100.00;97358.59;5061267;28;20491;-76
2022/08/16 01:28:34;;;;;;;4.53;3.33;;;18.60;99.90;;;19.46;100.00;97365.53;5062014;28;20551;-77
2022/08/16 01:31:15;;;;;;;4.17;3.23;;;18.50;99.90;;;19.46;100.00;97348.81;5059000;28;20812;-76
2022/08/16 01:33:44;;;;;;;10.77;4.00;;;18.50;99.90;;;19.46;100.00;97360.22;5058279;28;20456;-77
2022/08/16 01:36:17;;;;;;;5.27;3.40;;;18.50;99.90;;;19.42;100.00;97363.63;5066090;28;20472;-77
2022/08/16 01:38:53;;;;;;;3.50;3.20;;;18.40;99.90;;;19.38;100.00;97360.69;5062135;28;20488;-77
2022/08/16 01:41:30;;;;;;;5.33;3.80;;;18.40;99.90;;;19.34;100.00;97366.75;5061522;28;20457;-77
2022/08/16 01:43:59;;;;;;;5.57;3.77;;;18.40;99.90;;;19.31;100.00;97370.72;5060954;28;20460;-76
2022/08/16 01:46:33;;;;;;;4.40;3.83;;;18.30;99.90;;;19.27;100.00;97369.63;5066032;28;21429;-76
2022/08/16 01:49:15;;;;;;;4.77;3.73;;;18.30;99.90;;;19.25;100.00;97373.63;5060911;28;20494;-76
2022/08/16 01:51:51;;;;;;;4.93;3.53;;;18.30;99.90;;;19.20;100.00;97365.63;5062188;28;20459;-76
2022/08/16 01:54:22;;;;;;;4.80;3.47;;;18.30;99.90;;;19.16;100.00;97372.53;5068053;28;20448;-77
2022/08/16 01:57:01;;;;;;;6.23;3.73;;;18.30;99.90;;;19.16;100.00;97378.59;5062511;28;20978;-76
2022/08/16 01:59:31;;;;;;;4.90;3.90;;;18.20;99.90;;;19.16;100.00;97375.94;5061334;28;20954;-77
2022/08/16 02:02:01;;;;;;;5.20;3.97;;;18.20;99.90;;;19.16;100.00;97386.56;5064447;28;20489;-77
2022/08/16 02:04:50;;;;;;;9.33;3.97;;;18.20;99.90;;;19.17;100.00;97379.41;5062097;28;20527;-76
2022/08/16 02:07:23;;;;;;;5.53;4.07;;;18.20;99.90;;;19.10;100.00;97377.00;5061886;28;20444;-77
2022/08/16 02:09:53;;;;;;;4.67;3.63;;;18.20;99.90;;;19.09;100.00;97370.88;5062346;28;20463;-76
2022/08/16 02:12:29;;;;;;;4.70;3.60;;;18.20;99.90;;;19.12;100.00;97369.59;5064951;28;20440;-77
2022/08/16 02:15:22;;;;;;;5.23;3.63;;;18.10;99.90;;;19.06;100.00;97376.69;5060807;28;20567;-77
2022/08/16 02:17:53;;;;;;;5.13;4.30;;;18.10;99.90;;;19.00;100.00;97377.75;5060433;28;21049;-77
2022/08/16 02:20:25;;;;;;;5.07;3.93;;;18.00;99.90;;;18.91;100.00;97375.84;5062462;28;20501;-76
2022/08/16 02:22:56;;;;;;;10.10;4.60;;;18.00;99.90;;;18.88;100.00;97373.69;5058044;28;20452;-76
2022/08/16 02:25:29;;;;;;;5.33;3.93;;;17.90;99.90;;;18.85;100.00;97369.69;5059469;28;20468;-77
2022/08/16 02:28:20;;;;;;;7.57;4.77;;;17.90;99.90;;;18.84;100.00;97372.63;5063375;28;20460;-77
2022/08/16 02:30:52;;;;;;;7.87;4.17;;;17.90;99.90;;;18.83;100.00;97371.81;5062429;28;20460;-76
2022/08/16 02:33:22;;;;;;;6.03;4.07;;;17.90;99.90;;;18.84;100.00;97372.63;5058524;28;20985;-77
2022/08/16 02:36:13;;;;;;;5.17;3.33;;;17.90;99.90;;;18.86;100.00;97375.78;5059822;28;20489;-77
2022/08/16 02:39:03;;;;;;;5.40;3.80;;;18.00;99.90;;;18.85;100.00;97369.69;5061435;28;20553;-76
2022/08/16 02:41:32;;;;;;;3.53;3.13;;;17.90;99.90;;;18.85;100.00;97363.59;5062880;28;20468;-76
2022/08/16 02:44:10;;;;;;;7.97;3.93;;;18.00;99.90;;;18.86;100.00;97362.53;5064270;28;20481;-77
2022/08/16 02:46:43;;;;;;;4.87;3.67;;;18.00;99.90;;;18.88;100.00;97363.09;5062102;28;20541;-77
2022/08/16 02:49:22;;;;;;;4.23;3.70;;;18.00;99.90;;;18.89;100.00;97362.84;5065052;28;20455;-77
2022/08/16 02:52:10;;;;;;;8.10;3.70;;;18.00;99.90;;;18.90;100.00;97367.09;5066016;28;20467;-77
2022/08/16 02:54:57;;;;;;;4.30;3.87;;;17.90;99.90;;;18.92;100.00;97361.50;5063228;28;20549;-78
2022/08/16 02:57:27;;;;;;;5.63;3.97;;;18.00;99.90;;;18.95;100.00;97356.50;5064052;28;20583;-77
2022/08/16 02:59:58;;;;;;;6.67;4.13;;;18.00;99.90;;;18.94;100.00;97357.56;5066075;28;20468;-76
2022/08/16 03:02:28;;;;;;;5.27;3.90;;;18.00;99.90;;;18.89;100.00;97364.69;5064516;28;20966;-77
2022/08/16 03:04:59;;;;;;;4.43;4.03;;;18.00;99.90;;;18.88;100.00;97365.75;5062713;28;20465;-77
2022/08/16 03:07:29;;;;;;;4.00;3.60;;;18.00;99.90;;;18.80;100.00;97356.44;5064260;28;20543;-77
2022/08/16 03:10:08;;;;;;;4.67;3.63;;;18.00;99.90;;;18.81;100.00;97365.94;5063786;28;21111;-76
2022/08/16 03:12:38;;;;;;;5.30;4.50;;;17.90;99.90;;;18.81;100.00;97362.53;5061695;28;20558;-82
2022/08/16 03:15:26;;;;;;;7.83;4.20;;;17.90;99.90;;;18.81;100.00;97368.59;5066149;28;20879;-76
2022/08/16 03:17:55;;;;;;;4.67;3.80;;;18.00;99.90;;;18.84;100.00;97368.13;5065801;28;20487;-77
2022/08/16 03:20:24;;;;;;;10.07;3.90;;;18.00;99.90;;;18.89;100.00;97369.97;5066502;28;20519;-77
2022/08/16 03:23:00;;;;;;;4.50;3.23;;;18.00;99.90;;;18.92;100.00;97374.75;5065615;28;21052;-77
2022/08/16 03:25:31;;;;;;;3.90;3.33;;;18.00;99.90;;;18.94;100.00;97377.97;5065319;28;20986;-77
2022/08/16 03:28:12;;;;;;;5.70;4.03;;;18.00;99.90;;;18.93;100.00;97371.06;5066470;28;20468;-77
2022/08/16 03:30:46;;;;;;;5.70;3.40;;;18.00;99.90;;;18.93;100.00;97368.41;5062478;28;20538;-77
2022/08/16 03:33:15;;;;;;;4.40;3.33;;;18.10;99.90;;;18.91;100.00;97367.88;5058966;28;20871;-79
2022/08/16 03:35:45;;;;;;;5.47;3.37;;;18.10;99.90;;;18.88;100.00;97382.41;5060478;28;21013;-78
2022/08/16 03:38:18;;;;;;;3.87;3.47;;;18.10;99.90;;;18.88;100.00;97369.19;5062966;28;20572;-78
2022/08/16 03:41:04;;;;;;;5.43;3.53;;;18.10;99.90;;;18.87;100.00;97369.44;5064394;28;20456;-76
2022/08/16 03:43:53;;;;;;;4.00;3.30;;;18.10;99.90;;;18.86;100.00;97367.84;5066845;28;21059;-77
2022/08/16 03:46:23;;;;;;;6.50;3.80;;;18.00;99.90;;;18.89;100.00;97367.31;5064580;28;20452;-77
2022/08/16 03:49:13;;;;;;;3.70;3.30;;;18.10;99.90;;;18.92;100.00;97369.47;5064912;28;20536;-77
2022/08/16 03:51:44;;;;;;;4.43;3.90;;;18.00;99.90;;;18.90;100.00;97355.69;5062226;28;20461;-77
2022/08/16 03:54:13;;;;;;;6.53;3.93;;;18.10;99.90;;;18.92;100.00;97362.31;5064337;28;20525;-77
2022/08/16 03:56:43;;;;;;;5.77;3.90;;;18.10;99.90;;;18.95;100.00;97363.69;5065183;28;20479;-83
2022/08/16 03:59:25;;;;;;;16.77;10.40;;;18.10;99.90;;;18.97;100.00;97372.97;5065023;28;20449;-78
2022/08/16 04:01:59;;;;;;;6.73;5.10;;;18.10;99.90;;;19.00;100.00;97363.69;5066088;28;20946;-77
2022/08/16 04:04:30;;;;;;;5.50;4.20;;;18.10;99.90;;;19.01;100.00;97366.09;5064181;28;20550;-77
2022/08/16 04:07:02;;;;;;;6.23;4.10;;;18.10;99.90;;;19.01;100.00;97371.38;5060801;28;20522;-82
2022/08/16 04:09:34;;;;;;;4.67;4.07;;;18.10;99.90;;;19.01;100.00;97357.34;5063168;28;20529;-77
2022/08/16 04:12:07;;;;;;;5.57;3.83;;;18.10;99.90;;;19.04;100.00;97370.06;5060811;28;20522;-77
2022/08/16 04:14:56;;;;;;;6.97;4.20;;;18.10;99.90;;;19.05;100.00;97364.50;5062521;28;20536;-77
2022/08/16 04:17:27;;;;;;;6.70;3.60;;;18.10;99.90;;;19.09;100.00;97362.13;5067852;28;20488;-76
2022/08/16 04:19:56;;;;;;;5.37;3.50;;;18.10;99.90;;;19.07;100.00;97361.59;5065403;28;20508;-76
2022/08/16 04:22:28;;;;;;;6.83;3.67;;;18.10;99.90;;;19.05;100.00;97369.03;5062070;28;20479;-77
2022/08/16 04:24:57;;;;;;;8.05;4.05;;;18.10;99.90;;;19.05;100.00;97369.03;5065109;28;20498;-77
2022/08/16 04:27:27;;;;;;;4.57;4.10;;;18.10;99.90;;;19.06;100.00;97363.44;5066413;28;20699;-76
2022/08/16 04:29:59;;;;;;;5.30;3.77;;;18.10;99.90;;;19.10;100.00;97358.44;5065366;28;20464;-76
2022/08/16 04:32:33;;;;;;;5.10;3.90;;;18.10;99.90;;;19.11;100.00;97357.38;5065843;28;20475;-76
2022/08/16 04:35:04;;;;;;;4.67;3.27;;;18.20;99.90;;;19.12;100.00;97364.28;5066024;28;20480;-76
2022/08/16 04:37:40;;;;;;;4.70;3.80;;;18.20;99.90;;;19.12;100.00;97366.94;5067094;28;20519;-76
2022/08/16 04:40:11;;;;;;;4.13;3.70;;;18.10;99.90;;;19.12;100.00;97374.09;5065052;28;20533;-77
2022/08/16 04:42:53;;;;;;;5.33;4.00;;;18.20;99.90;;;19.12;100.00;97369.59;5065572;28;20451;-77
2022/08/16 04:45:23;;;;;;;3.80;3.40;;;18.10;99.90;;;19.12;100.00;97374.91;5066708;28;20476;-77
2022/08/16 04:48:06;;;;;;;5.30;4.27;;;18.10;99.90;;;19.13;100.00;97371.16;5065845;28;20467;-76
2022/08/16 04:50:36;;;;;;;10.27;4.50;;;18.10;99.90;;;19.13;100.00;97373.00;5066778;28;20446;-76
2022/08/16 04:53:11;;;;;;;4.33;3.77;;;18.10;99.90;;;19.12;100.00;97384.69;5065538;28;20543;-76
2022/08/16 04:55:44;;;;;;;5.00;3.97;;;18.10;99.90;;;19.10;100.00;97377.00;5065542;28;20470;-76
2022/08/16 04:58:13;;;;;;;4.70;3.60;;;18.20;99.90;;;19.14;100.00;97385.22;5064996;28;20617;-76
2022/08/16 05:01:02;;;;;;;5.10;3.70;;;18.10;99.90;;;19.11;100.00;97389.19;5065308;28;20445;-77
2022/08/16 05:03:37;;;;;;;6.87;4.10;;;18.20;99.90;;;19.08;100.00;97395.00;5066239;28;20582;-76
2022/08/16 05:06:26;;;;;;;14.43;3.97;;;18.20;99.90;;;19.08;100.00;97395.81;5064583;28;20915;-76
2022/08/16 05:09:13;;;;;;;7.43;4.50;;;18.20;99.90;;;19.10;100.00;97400.84;5065519;28;20460;-76
2022/08/16 05:11:43;;;;;;;5.93;4.43;;;18.20;99.90;;;19.09;100.00;97385.97;5066722;28;20445;-76
2022/08/16 05:14:12;;;;;;;7.53;4.17;;;18.20;99.90;;;19.06;100.00;97397.91;5063921;28;20974;-76
2022/08/16 05:16:48;;;;;;;4.23;3.83;;;18.10;99.90;;;19.04;100.00;97396.56;5064613;28;20474;-77
2022/08/16 05:19:21;;;;;;;5.60;4.07;;;18.20;99.90;;;18.99;100.00;97397.34;5066788;28;20532;-76
2022/08/16 05:21:49;;;;;;;4.57;4.07;;;18.10;99.90;;;18.97;100.00;97398.66;5065221;28;20465;-76
2022/08/16 05:24:18;;;;;;;4.23;3.67;;;18.10;99.90;;;18.97;100.00;97401.31;5066084;28;20448;-76
2022/08/16 05:26:52;;;;;;;5.93;4.50;;;18.10;99.90;;;18.95;100.00;97401.53;5067567;28;20868;-77
2022/08/16 05:29:24;;;;;;;5.40;4.90;;;18.00;99.90;;;18.96;100.00;97402.34;5064399;28;20944;-77
2022/08/16 05:32:19;;;;;;;5.87;4.47;;;18.00;99.90;;;18.93;100.00;97416.13;5064020;28;20805;-77
2022/08/16 05:35:06;;;;;;;5.30;3.83;;;18.00;99.90;;;18.94;100.00;97412.41;5064134;28;20830;-76
2022/08/16 05:37:40;;;;;;;6.13;4.53;;;18.10;99.90;;;18.93;100.00;97418.75;5063277;28;20456;-76
2022/08/16 05:40:12;;;;;;;8.63;5.73;;;18.00;99.90;;;18.95;100.00;97419.31;5064482;28;20476;-76
2022/08/16 05:42:41;;;;;;;6.97;4.83;;;18.00;99.90;;;18.96;100.00;97420.91;5065843;28;20556;-77
2022/08/16 05:45:14;;;;;;;6.90;5.13;;;18.00;99.90;;;18.96;100.00;97408.44;5047917;28;20448;-76
2022/08/16 05:47:51;;;;;;;5.40;4.33;;;18.00;99.90;;;19.01;100.00;97420.94;5065485;28;20429;-76
2022/08/16 05:50:30;;;;;;;7.90;5.20;;;18.00;99.90;;;19.00;100.00;97409.53;5063989;28;20440;-77
2022/08/16 05:53:02;;;;;;;5.90;4.90;;;18.10;99.90;;;19.04;100.00;97420.44;5066325;28;20444;-76
2022/08/16 05:55:33;;;;;;;7.60;4.87;;;18.10;99.90;;;19.05;100.00;97422.03;5063755;28;20945;-76
2022/08/16 05:58:09;;;;;;;6.43;4.90;;;18.10;99.90;;;19.08;100.00;97432.13;5065996;28;20467;-76
2022/08/16 06:00:57;;;;;;;4.70;4.10;;;18.20;99.90;;;19.09;100.00;97429.19;5065679;28;20441;-76
2022/08/16 06:03:26;;;;;;;4.80;4.07;;;18.20;99.90;;;19.13;100.00;97432.13;5065537;28;20440;-76
2022/08/16 06:05:59;;;;;;;6.17;5.20;;;18.20;99.90;;;19.14;100.00;97436.38;5065501;28;20822;-76
2022/08/16 06:08:28;;;;;;;7.13;4.80;;;18.20;99.90;;;19.18;100.00;97434.81;5065198;28;20553;-76
2022/08/16 06:10:59;;;;;;;5.50;4.50;;;18.20;99.90;;;19.20;100.00;97429.25;5065134;28;20484;-76
2022/08/16 06:13:41;;;;;;;18.70;5.80;;;18.20;99.90;;;19.21;100.00;97429.00;5065116;28;20463;-76
2022/08/16 06:16:10;;;;;;;6.10;5.17;;;18.30;99.90;;;19.25;100.00;97421.34;5063779;28;20439;-76
2022/08/16 06:18:45;;;;;;;5.97;5.10;;;18.40;99.90;;;19.28;100.00;97421.63;5066104;28;20552;-76
2022/08/16 06:21:16;;;;;;;5.27;4.23;;;18.50;99.90;;;19.31;100.00;97431.72;5064695;28;20468;-76
2022/08/16 06:23:52;;;;;;;4.77;4.30;;;18.40;99.90;;;19.35;100.00;97432.78;5064767;28;20441;-76
2022/08/16 06:26:22;;;;;;;5.87;5.23;;;18.50;99.90;;;19.41;100.00;97425.69;5066495;28;20471;-76
2022/08/16 06:28:51;;;;;;;7.07;5.67;;;18.50;99.90;;;19.45;100.00;97418.81;5065651;28;20968;-76
2022/08/16 06:31:20;;;;;;;10.60;6.37;;;18.60;99.90;;;19.49;100.00;97415.38;5064245;28;20445;-77
2022/08/16 06:33:53;;;;;;;9.60;5.97;;;18.70;99.90;;;19.55;100.00;97411.69;5064879;28;20445;-76
2022/08/16 06:36:24;;;;;;;7.90;5.30;;;18.80;99.90;;;19.61;100.00;97419.69;5059137;28;20960;-76
2022/08/16 06:38:58;;;;;;;9.73;6.47;;;18.90;99.90;;;19.65;100.00;97423.38;5060129;28;20487;-76
2022/08/16 06:41:27;;;;;;;6.10;5.10;;;18.80;99.90;;;19.67;100.00;97416.78;5062924;28;20859;-76
2022/08/16 06:44:07;;;;;;;13.33;5.40;;;18.80;99.90;;;19.71;100.00;97425.03;5062226;28;20444;-76
2022/08/16 06:46:48;;;;;;;11.30;5.67;;;18.90;99.90;;;19.72;100.00;97421.28;5063399;28;20445;-76
2022/08/16 06:49:18;;;;;;;9.07;5.47;;;18.90;99.90;;;19.78;100.00;97421.06;5063851;28;20539;-76
2022/08/16 06:51:49;;;;;;;8.87;5.30;;;18.90;99.90;;;19.80;100.00;97421.59;5065291;28;20548;-76
2022/08/16 06:54:20;;;;;;;6.23;5.03;;;18.90;99.90;;;19.86;100.00;97417.88;5064402;28;20452;-76
2022/08/16 06:56:50;;;;;;;5.40;4.90;;;19.00;99.90;;;19.89;100.00;97412.06;5066382;28;20500;-76
2022/08/16 06:59:22;;;;;;;4.90;4.47;;;19.10;99.90;;;19.96;100.00;97412.59;5065625;28;20495;-76
2022/08/16 07:01:53;;;;;;;5.80;5.10;;;19.10;99.90;;;19.99;100.00;97417.38;5065678;28;20922;-76
2022/08/16 07:04:26;;;;;;;6.90;4.53;;;19.20;99.90;;;20.04;100.00;97413.94;5065651;28;20445;-76
2022/08/16 07:07:05;;;;;;;6.80;4.70;;;19.20;99.90;;;20.06;100.00;97417.94;5065165;28;20447;-76
2022/08/16 07:09:37;;;;;;;6.93;4.80;;;19.20;99.90;;;20.09;100.00;97411.31;5065536;28;20443;-76
2022/08/16 07:12:07;;;;;;;5.87;4.20;;;19.30;99.90;;;20.14;100.00;97413.97;5064837;28;20483;-76
2022/08/16 07:14:35;;;;;;;7.10;4.20;;;19.40;99.90;;;20.18;100.00;97416.88;5062984;28;20455;-76
2022/08/16 07:17:07;;;;;;;5.50;4.63;;;19.40;99.90;;;20.21;100.00;97409.19;5062928;28;20795;-76
2022/08/16 07:19:40;;;;;;;6.73;4.60;;;19.40;99.90;;;20.27;100.00;97408.16;5064406;28;20493;-76
2022/08/16 07:22:30;;;;;;;5.63;4.40;;;19.50;99.90;;;20.30;100.00;97410.31;5063713;28;20453;-76
2022/08/16 07:25:09;;;;;;;5.73;4.70;;;19.50;99.90;;;20.35;100.00;97415.63;5063307;28;20456;-76
2022/08/16 07:27:40;;;;;;;5.90;4.43;;;19.60;99.90;;;20.35;100.00;97415.63;5067667;28;20436;-76
2022/08/16 07:30:16;;;;;;;6.47;4.53;;;19.60;99.90;;;20.38;100.00;97412.44;5069164;28;20444;-77
2022/08/16 07:33:06;;;;;;;5.50;4.40;;;19.60;99.90;;;20.44;100.00;97413.25;5066917;28;20884;-76
2022/08/16 07:35:35;;;;;;;6.17;4.97;;;19.70;99.90;;;20.46;100.00;97414.56;5067700;28;20521;-76
2022/08/16 07:38:13;;;;;;;4.90;4.37;;;19.80;99.90;;;20.49;100.00;97416.69;5068476;28;20433;-77
2022/08/16 07:40:59;;;;;;;8.53;5.20;;;19.80;99.90;;;20.55;100.00;97412.16;5070707;28;20489;-77
2022/08/16 07:43:29;;;;;;;7.80;4.53;;;19.80;99.90;;;20.56;100.00;97419.88;5069223;28;20777;-76
2022/08/16 07:45:59;;;;;;;8.30;4.60;;;19.80;99.90;;;20.59;100.00;97423.84;5069872;28;20448;-77
2022/08/16 07:48:29;;;;;;;7.80;4.43;;;19.80;99.90;;;20.65;100.00;97419.34;5067453;28;20835;-77
2022/08/16 07:50:59;;;;;;;6.47;4.73;;;19.90;99.90;;;20.69;100.00;97421.19;5068498;28;20484;-77
2022/08/16 07:53:37;;;;;;;6.37;4.30;;;20.10;99.90;;;20.70;100.00;97429.97;5065948;28;20539;-77
2022/08/16 07:56:12;;;;;;;5.90;4.13;;;20.00;99.90;;;20.75;100.00;97428.13;5067921;28;20443;-76
2022/08/16 07:58:41;;;;;;;8.13;4.17;;;20.10;99.90;;;20.81;100.00;97426.25;5067692;28;20483;-76
2022/08/16 08:01:12;;;;;;;5.20;4.70;;;20.20;99.90;;;20.87;100.00;97433.13;5066375;28;20496;-77
2022/08/16 08:03:44;;;;;;;7.23;4.20;;;20.20;99.90;;;20.92;100.00;97430.50;5068510;28;20503;-77
2022/08/16 08:06:17;;;;;;;7.10;3.90;;;20.20;99.90;;;20.98;100.00;97424.09;5066512;28;20448;-76
2022/08/16 08:08:47;;;;;;;4.30;3.83;;;20.30;99.90;;;21.05;100.00;97421.94;5068551;28;20439;-77
2022/08/16 08:11:22;;;;;;;4.77;3.70;;;20.40;99.90;;;21.13;100.00;97432.06;5068405;28;20464;-77
2022/08/16 08:13:58;;;;;;;5.13;4.10;;;20.40;99.90;;;21.18;100.00;97439.22;5068872;28;21033;-77
2022/08/16 08:16:32;;;;;;;5.20;4.30;;;20.50;99.90;;;21.26;100.00;97438.69;5064674;28;20486;-77
2022/08/16 08:19:04;;;;;;;6.73;4.37;;;20.70;99.90;;;21.27;100.00;97433.09;5063601;28;20950;-76
2022/08/16 08:21:34;;;;;;;4.70;3.73;;;20.70;99.90;;;21.34;100.00;97428.31;5066154;28;20526;-77
2022/08/16 08:24:25;;;;;;;4.97;3.60;;;20.70;99.90;;;21.39;100.00;97430.94;5066618;28;20941;-77
2022/08/16 08:27:01;;;;;;;5.27;3.53;;;20.80;99.90;;;21.45;100.00;97424.50;5065999;28;20447;-77
2022/08/16 08:29:32;;;;;;;6.30;3.67;;;20.90;99.90;;;21.50;100.00;97432.50;5065703;28;20456;-77
2022/08/16 08:32:09;;;;;;;4.50;3.90;;;20.90;99.90;;;21.58;100.00;97436.47;5066965;28;20436;-77
2022/08/16 08:35:00;;;;;;;3.70;3.10;;;21.00;99.90;;;21.64;100.00;97432.69;5067122;28;20445;-77
2022/08/16 08:37:31;;;;;;;5.40;4.10;;;21.10;99.90;;;21.68;100.00;97441.75;5065675;28;20494;-77
2022/08/16 08:40:25;;;;;;;4.57;3.37;;;21.00;99.90;;;21.76;100.00;97435.06;5067108;28;20482;-77
2022/08/16 08:42:56;;;;;;;4.17;3.77;;;21.10;99.90;;;21.80;100.00;97430.75;5068733;28;20733;-77
2022/08/16 08:45:38;;;;;;;5.10;3.80;;;21.10;99.90;;;21.88;100.00;97438.97;5068241;28;20988;-77
2022/08/16 08:48:17;;;;;;;8.43;3.53;;;21.20;99.90;;;21.96;100.00;97445.63;5067436;28;20436;-77
2022/08/16 08:51:04;;;;;;;4.00;3.57;;;21.30;99.90;;;22.03;100.00;97454.13;5063898;28;20499;-77
2022/08/16 08:53:37;;;;;;;3.83;3.40;;;21.40;99.90;;;22.08;100.00;97454.06;5061761;28;20864;-77
2022/08/16 08:56:08;;;;;;;5.10;3.07;;;21.50;99.90;;;22.13;100.00;97453.25;5063988;28;20495;-77
2022/08/16 08:58:54;;;;;;;3.67;3.07;;;21.50;99.90;;;22.22;100.00;97451.59;5060691;28;20449;-77
2022/08/16 09:01:35;;;;;;;4.60;3.20;;;21.50;99.90;;;22.27;100.00;97448.91;5060462;28;20499;-77
2022/08/16 09:04:12;;;;;;;4.57;3.70;;;21.60;99.90;;;22.33;100.00;97445.13;5063030;28;20468;-76
2022/08/16 09:06:46;;;;;;;5.63;3.00;;;21.80;99.90;;;22.38;100.00;97445.91;5061571;28;20444;-77
2022/08/16 09:09:15;;;;;;;4.10;3.20;;;21.80;99.80;;;22.45;100.00;97442.94;5063511;28;20447;-78
2022/08/16 09:11:47;;;;;;;3.30;3.00;;;21.90;99.90;;;22.49;100.00;97436.75;5062230;28;20482;-77
2022/08/16 09:14:21;;;;;;;4.17;2.97;;;21.90;99.60;;;22.53;100.00;97451.13;5066772;28;20441;-77
2022/08/16 09:16:52;;;;;;;4.80;3.10;;;21.90;99.00;;;22.62;100.00;97459.31;5068638;28;20452;-77
2022/08/16 09:19:33;;;;;;;4.50;3.10;;;21.90;99.30;;;22.69;100.00;97449.16;5064705;28;20440;-77
2022/08/16 09:22:03;;;;;;;3.70;2.70;;;22.00;99.00;;;22.77;100.00;97453.13;5062655;28;20495;-77
2022/08/16 09:24:33;;;;;;;5.00;3.57;;;22.20;99.00;;;22.85;100.00;97452.50;5064396;28;20455;-77
2022/08/16 09:27:21;;;;;;;3.37;2.80;;;22.20;99.00;;;22.91;100.00;97449.50;5066490;28;21254;-77
2022/08/16 09:29:53;;;;;;;3.20;2.60;;;22.30;98.50;;;22.98;98.85;97436.63;5069226;28;20443;-77
2022/08/16 09:32:29;;;;;;;9.43;2.83;;;22.40;98.30;;;23.07;98.24;97447.50;5064149;28;21075;-78
2022/08/16 09:35:01;;;;;;;4.37;3.10;;;22.50;98.00;;;23.16;99.08;97437.00;5066626;28;20449;-77
2022/08/16 09:37:31;;;;;;;3.70;3.00;;;22.60;98.40;;;23.22;97.62;97446.56;5065616;28;20465;-77
2022/08/16 09:40:08;;;;;;;4.00;3.20;;;22.70;98.10;;;23.29;95.12;97452.34;5066780;28;20549;-77
2022/08/16 09:42:58;;;;;;;9.23;3.97;;;22.80;97.50;;;23.37;93.18;97449.03;5065857;28;20468;-77
2022/08/16 09:45:28;;;;;;;3.33;3.03;;;23.00;97.20;;;23.40;92.38;97446.59;5065425;28;20499;-77
2022/08/16 09:47:58;;;;;;;6.00;3.10;;;23.00;97.00;;;23.47;92.35;97443.63;5065219;28;21007;-77
2022/08/16 09:50:30;;;;;;;5.73;3.57;;;23.00;97.00;;;23.55;90.19;97443.81;5064339;28;21029;-77
2022/08/16 09:53:12;;;;;;;5.07;2.77;;;23.20;96.50;;;23.62;90.18;97450.66;5067632;28;20494;-77
2022/08/16 09:55:47;;;;;;;4.13;3.17;;;23.30;96.50;;;23.65;89.16;97442.09;5067899;28;20444;-77
2022/08/16 09:58:22;;;;;;;3.10;2.50;;;23.20;96.30;;;23.69;89.09;97445.78;5064876;28;20469;-77
2022/08/16 10:01:11;;;;;;;4.13;2.93;;;23.30;96.20;;;23.74;89.51;97443.06;5065859;28;20492;-77
2022/08/16 10:03:40;;;;;;;4.60;2.60;;;23.20;96.30;;;23.75;90.22;97450.75;5066214;28;20448;-77
2022/08/16 10:06:30;;;;;;;4.50;3.13;;;23.20;96.70;;;23.82;87.77;97445.88;5066541;28;20559;-77
2022/08/16 10:09:02;;;;;;;3.53;3.17;;;23.30;96.00;;;23.86;88.67;97444.22;5065702;28;20440;-77
2022/08/16 10:14:41;;;;;;;3.90;3.30;;;23.30;96.40;;;23.97;88.41;97442.22;5060373;28;20491;-77
2022/08/16 10:17:14;;;;;;;4.53;3.30;;;23.30;96.20;;;24.02;86.92;97437.59;5060734;28;21110;-77
2022/08/16 10:19:45;;;;;;;3.40;2.87;;;23.40;96.00;;;24.02;85.53;97439.47;5060607;28;20468;-77
2022/08/16 10:22:18;;;;;;;6.37;3.10;;;23.40;95.50;;;24.05;86.31;97439.69;5062375;28;20529;-77
2022/08/16 10:24:50;;;;;;;5.97;3.07;;;23.40;95.80;;;24.10;86.04;97446.84;5060415;28;20545;-77
2022/08/16 10:27:27;;;;;;;3.77;2.90;;;23.50;95.50;;;24.17;85.04;97447.31;5059992;28;20471;-77
2022/08/16 10:30:17;;;;;;;5.00;3.00;;;23.60;95.60;;;24.19;84.04;97439.00;5064935;28;20456;-77
2022/08/16 10:32:56;;;;;;;3.47;2.80;;;23.60;95.20;;;24.18;83.32;97448.91;5065381;28;20451;-77
2022/08/16 10:35:26;;;;;;;5.17;3.10;;;23.60;95.00;;;24.24;83.79;97441.59;5065093;28;20448;-77
2022/08/16 10:38:00;;;;;;;3.13;2.60;;;23.60;95.10;;;24.26;83.28;97445.56;5065656;28;20454;-77
2022/08/16 10:40:34;;;;;;;4.27;3.27;;;23.70;95.00;;;24.25;82.76;97449.34;5062743;28;20542;-76
2022/08/16 10:43:04;;;;;;;4.57;2.53;;;23.60;94.90;;;24.23;81.34;97443.47;5066079;28;20461;-77
2022/08/16 10:45:45;;;;;;;4.43;3.07;;;23.60;94.60;;;24.27;81.95;97449.81;5065063;28;20442;-77
2022/08/16 10:48:28;;;;;;;4.20;2.77;;;23.50;94.70;;;24.29;80.71;97445.00;5066669;28;20474;-77
2022/08/16 10:50:59;;;;;;;3.40;3.07;;;23.70;94.60;;;24.33;81.43;97445.22;5065552;28;21009;-77